Time;durP1;ratioP1;P1;durP2;ratioP2;P2;SDS_P1;SDS_P2;PMS_P1;PMS_P2;Temp;Humidity;BMP_temperature;BMP_pressure;BME280_temperature;BME280_humidity;BME280_pressure;Samples;Min_cycle;Max_cycle;Signal;HPM_P1;HPM_P2
2023/12/18 00:00:23;;;;;;;29.73;10.90;;;6.50;99.00;;;;;;5005723;28;20030;-58
2023/12/18 00:02:49;;;;;;;26.10;11.45;;;6.50;99.00;;;;;;5005768;28;20037;-58
2023/12/18 00:05:14;;;;;;;26.90;11.65;;;6.50;99.00;;;;;;5005763;28;20038;-58
2023/12/18 00:07:40;;;;;;;29.23;11.55;;;6.50;98.90;;;;;;5005529;28;20097;-59
2023/12/18 00:10:06;;;;;;;31.58;11.40;;;6.50;98.90;;;;;;5006798;28;20041;-58
2023/12/18 00:12:31;;;;;;;30.17;12.48;;;6.50;98.90;;;;;;5005634;28;20030;-58
2023/12/18 00:14:57;;;;;;;30.02;11.68;;;6.50;99.00;;;;;;5005360;28;20398;-58
2023/12/18 00:17:22;;;;;;;29.63;11.57;;;6.50;99.00;;;;;;5006586;28;20026;-58
2023/12/18 00:19:48;;;;;;;29.15;11.55;;;6.50;98.90;;;;;;5005394;28;20383;-58
2023/12/18 00:22:14;;;;;;;27.88;11.95;;;6.50;99.00;;;;;;5005291;28;20089;-58
2023/12/18 00:24:39;;;;;;;25.08;11.40;;;6.50;99.00;;;;;;5006565;28;20034;-58
2023/12/18 00:27:05;;;;;;;25.67;10.80;;;6.50;99.00;;;;;;5006515;28;20121;-58
2023/12/18 00:29:30;;;;;;;24.17;10.85;;;6.50;99.30;;;;;;5006307;28;20034;-58
2023/12/18 00:31:56;;;;;;;20.50;10.45;;;6.40;99.00;;;;;;5006252;28;20026;-58
2023/12/18 00:34:22;;;;;;;23.08;10.98;;;6.50;99.00;;;;;;5005252;28;20034;-58
2023/12/18 00:36:47;;;;;;;24.60;11.32;;;6.40;99.00;;;;;;4989066;28;20030;-58
2023/12/18 00:39:15;;;;;;;27.77;11.65;;;6.40;99.00;;;;;;5006268;28;20026;-58
2023/12/18 00:41:41;;;;;;;22.83;10.60;;;6.50;99.00;;;;;;5004618;28;20072;-58
2023/12/18 00:44:07;;;;;;;25.70;11.18;;;6.40;99.00;;;;;;4988830;28;20470;-58
2023/12/18 00:46:32;;;;;;;24.25;11.32;;;6.40;99.00;;;;;;5006027;28;20031;-58
2023/12/18 00:48:58;;;;;;;20.35;10.95;;;6.50;99.00;;;;;;5004904;28;20030;-58
2023/12/18 00:51:24;;;;;;;22.30;11.27;;;6.40;99.00;;;;;;5005973;28;20042;-58
2023/12/18 00:53:49;;;;;;;26.88;10.80;;;6.40;99.00;;;;;;4988777;28;20026;-58
2023/12/18 00:56:15;;;;;;;20.63;10.98;;;6.40;99.00;;;;;;5005119;28;20040;-58
2023/12/18 00:58:40;;;;;;;26.42;11.13;;;6.40;98.90;;;;;;5006074;28;20022;-58
2023/12/18 01:01:06;;;;;;;22.33;10.18;;;6.40;99.00;;;;;;5004840;28;20061;-58
2023/12/18 01:03:31;;;;;;;19.30;10.98;;;6.40;99.00;;;;;;5004843;28;20022;-58
2023/12/18 01:05:57;;;;;;;25.27;10.80;;;6.40;98.90;;;;;;4988506;28;20042;-58
2023/12/18 01:08:22;;;;;;;27.00;11.60;;;6.40;99.00;;;;;;5004845;28;20033;-58
2023/12/18 01:10:48;;;;;;;25.63;10.40;;;6.40;99.00;;;;;;5004721;28;20026;-58
2023/12/18 01:13:14;;;;;;;25.98;11.63;;;6.40;99.00;;;;;;5005818;28;20038;-58
2023/12/18 01:15:39;;;;;;;24.77;10.40;;;6.40;99.00;;;;;;4988374;28;20438;-58
2023/12/18 01:18:05;;;;;;;19.60;9.77;;;6.30;99.00;;;;;;5005803;28;20022;-58
2023/12/18 01:20:30;;;;;;;21.85;9.50;;;6.30;99.00;;;;;;5004345;28;20061;-58
2023/12/18 01:22:56;;;;;;;21.58;10.20;;;6.30;99.10;;;;;;5004394;28;20040;-58
2023/12/18 01:25:22;;;;;;;28.08;11.32;;;6.30;99.10;;;;;;5004508;28;20394;-58
2023/12/18 01:27:47;;;;;;;28.30;10.60;;;6.30;99.10;;;;;;5004277;28;20030;-58
2023/12/18 01:30:13;;;;;;;19.38;10.25;;;6.30;99.10;;;;;;5005509;28;20494;-58
2023/12/18 01:32:39;;;;;;;23.42;11.18;;;6.30;99.10;;;;;;5005628;28;20031;-58
2023/12/18 01:35:05;;;;;;;21.75;11.25;;;6.30;99.20;;;;;;4988053;28;20117;-58
2023/12/18 01:37:30;;;;;;;16.95;10.98;;;6.30;99.20;;;;;;5004057;28;20018;-58
2023/12/18 01:39:57;;;;;;;21.60;11.82;;;6.30;99.20;;;;;;5004295;28;20023;-58
2023/12/18 01:42:23;;;;;;;22.75;10.75;;;6.30;99.20;;;;;;5004287;28;20027;-58
2023/12/18 01:44:48;;;;;;;17.80;10.52;;;6.30;99.20;;;;;;5005506;28;20529;-58
2023/12/18 01:47:14;;;;;;;22.98;11.20;;;6.30;99.20;;;;;;5004309;28;20100;-58
2023/12/18 01:49:40;;;;;;;21.75;11.13;;;6.30;99.20;;;;;;5004032;28;20027;-58
2023/12/18 01:52:05;;;;;;;16.58;9.85;;;6.30;99.20;;;;;;5003134;28;20031;-58
2023/12/18 01:54:31;;;;;;;19.98;10.15;;;6.30;99.20;;;;;;5003784;28;20026;-58
2023/12/18 01:56:57;;;;;;;23.80;10.52;;;6.30;99.20;;;;;;4987552;28;20050;-58
2023/12/18 01:59:22;;;;;;;18.50;10.50;;;6.30;99.20;;;;;;4987653;28;20033;-58
2023/12/18 02:01:48;;;;;;;24.45;10.75;;;6.30;99.10;;;;;;5004056;28;20026;-58
2023/12/18 02:04:14;;;;;;;20.88;10.38;;;6.20;99.10;;;;;;5003777;28;20470;-58
2023/12/18 02:06:40;;;;;;;18.00;9.52;;;6.20;99.10;;;;;;5003819;28;20023;-58
2023/12/18 02:09:05;;;;;;;17.52;10.45;;;6.20;99.20;;;;;;5003787;28;20059;-58
2023/12/18 02:11:31;;;;;;;19.58;10.13;;;6.30;99.20;;;;;;4987483;28;20023;-58
2023/12/18 02:13:56;;;;;;;19.17;9.90;;;6.30;99.20;;;;;;5003646;28;20458;-58
2023/12/18 02:16:22;;;;;;;20.98;10.38;;;6.20;99.20;;;;;;5003672;28;20052;-58
2023/12/18 02:18:48;;;;;;;19.83;10.30;;;6.20;99.20;;;;;;4987434;28;20526;-58
2023/12/18 02:21:20;;;;;;;21.23;10.90;;;6.30;99.20;;;;;;5003615;28;20026;-58
2023/12/18 02:23:49;;;;;;;19.27;10.02;;;6.20;99.20;;;;;;5004821;28;20394;-58
2023/12/18 02:26:15;;;;;;;19.05;9.90;;;6.20;99.20;;;;;;5004860;28;20046;-58
2023/12/18 02:28:41;;;;;;;17.30;9.85;;;6.20;99.20;;;;;;5003500;28;20059;-58
2023/12/18 02:31:07;;;;;;;18.05;9.85;;;6.20;99.20;;;;;;5003344;28;20053;-58
2023/12/18 02:33:33;;;;;;;19.67;10.27;;;6.20;99.20;;;;;;5003282;28;20031;-58
2023/12/18 02:36:01;;;;;;;15.45;10.00;;;6.20;99.20;;;;;;5003329;28;20056;-58
2023/12/18 02:38:27;;;;;;;16.42;9.80;;;6.20;99.20;;;;;;5003397;28;20049;-58
2023/12/18 02:40:53;;;;;;;15.10;10.10;;;6.20;99.20;;;;;;5002999;28;20034;-58
2023/12/18 02:43:18;;;;;;;16.75;9.18;;;6.20;99.20;;;;;;5004250;28;20062;-58
2023/12/18 02:45:44;;;;;;;17.55;9.20;;;6.20;99.20;;;;;;5003246;28;20038;-58
2023/12/18 02:48:09;;;;;;;15.07;9.68;;;6.20;99.20;;;;;;5003344;28;20027;-58
2023/12/18 02:50:35;;;;;;;17.15;9.68;;;6.20;99.20;;;;;;5004369;28;20026;-58
2023/12/18 02:53:00;;;;;;;16.77;9.95;;;6.20;99.20;;;;;;5004386;28;20057;-58
2023/12/18 02:55:26;;;;;;;16.55;9.55;;;6.20;99.20;;;;;;5003111;28;20030;-58
2023/12/18 02:57:51;;;;;;;15.45;9.55;;;6.20;99.30;;;;;;5003082;28;20022;-58
2023/12/18 03:00:17;;;;;;;13.68;8.63;;;6.10;99.20;;;;;;5002997;28;20029;-58
2023/12/18 03:02:44;;;;;;;19.20;9.15;;;6.20;99.30;;;;;;5003098;28;20027;-58
2023/12/18 03:05:09;;;;;;;17.15;9.73;;;6.10;99.20;;;;;;5002644;28;20030;-58
2023/12/18 03:07:35;;;;;;;12.02;8.32;;;6.20;99.30;;;;;;5003191;28;20044;-58
2023/12/18 03:10:01;;;;;;;16.40;8.80;;;6.10;99.20;;;;;;5004232;28;20026;-58
2023/12/18 03:12:26;;;;;;;12.93;9.38;;;6.10;99.20;;;;;;4986808;28;20031;-58
2023/12/18 03:14:52;;;;;;;11.60;8.20;;;6.10;99.20;;;;;;5002954;28;20034;-57
2023/12/18 03:17:18;;;;;;;15.57;8.82;;;6.10;99.20;;;;;;5003878;28;20023;-57
2023/12/18 03:19:43;;;;;;;14.70;8.98;;;6.10;99.30;;;;;;5004209;28;20562;-58
2023/12/18 03:22:09;;;;;;;14.10;8.68;;;6.10;99.30;;;;;;4986748;28;20030;-58
2023/12/18 03:24:34;;;;;;;13.07;7.97;;;6.10;99.30;;;;;;5004110;28;20120;-58
2023/12/18 03:27:00;;;;;;;13.57;8.15;;;6.10;99.30;;;;;;5002266;28;20041;-58
2023/12/18 03:29:25;;;;;;;14.27;8.23;;;6.10;99.20;;;;;;5002994;28;20039;-57
2023/12/18 03:31:51;;;;;;;12.23;8.32;;;6.10;99.20;;;;;;5004127;28;20523;-58
2023/12/18 03:34:17;;;;;;;14.60;8.43;;;6.10;99.30;;;;;;5003111;28;20031;-58
2023/12/18 03:36:42;;;;;;;12.57;8.38;;;6.10;99.20;;;;;;5003924;28;20083;-58
2023/12/18 03:39:08;;;;;;;16.98;9.38;;;6.10;99.20;;;;;;5003800;28;20143;-58
2023/12/18 03:41:33;;;;;;;15.27;8.65;;;6.10;99.20;;;;;;5002395;28;20128;-58
2023/12/18 03:43:59;;;;;;;11.80;7.97;;;6.10;99.20;;;;;;5002471;28;20113;-58
2023/12/18 03:46:25;;;;;;;14.50;7.78;;;6.10;99.20;;;;;;5003707;28;20035;-58
2023/12/18 03:48:50;;;;;;;13.13;8.73;;;6.00;99.20;;;;;;4986305;28;20545;-58
2023/12/18 03:51:16;;;;;;;14.88;7.88;;;6.10;99.20;;;;;;5002076;28;20109;-58
2023/12/18 03:53:42;;;;;;;12.05;8.23;;;6.00;99.40;;;;;;5003342;28;20378;-58
2023/12/18 03:56:07;;;;;;;12.98;8.27;;;6.10;99.20;;;;;;5003345;28;20041;-58
2023/12/18 03:58:33;;;;;;;11.63;8.20;;;6.00;99.20;;;;;;5003587;28;20042;-59
2023/12/18 04:00:58;;;;;;;13.27;8.13;;;6.10;99.20;;;;;;5003339;28;20026;-58
2023/12/18 04:03:24;;;;;;;12.65;8.52;;;6.00;99.20;;;;;;5003377;28;20057;-58
2023/12/18 04:05:49;;;;;;;13.38;7.70;;;6.10;99.20;;;;;;5003296;28;20038;-58
2023/12/18 04:08:15;;;;;;;9.88;7.35;;;6.00;99.10;;;;;;5002170;28;20118;-58
2023/12/18 04:10:41;;;;;;;11.95;7.35;;;6.00;99.20;;;;;;5002530;28;20038;-58
2023/12/18 04:13:06;;;;;;;12.32;7.13;;;6.00;99.40;;;;;;5001922;28;20041;-58
2023/12/18 04:15:32;;;;;;;13.68;8.68;;;6.00;99.20;;;;;;5002515;28;20478;-58
2023/12/18 04:17:57;;;;;;;13.45;7.80;;;6.00;99.20;;;;;;5005474;28;20054;-58
2023/12/18 04:20:23;;;;;;;10.27;7.45;;;6.00;99.10;;;;;;5006540;28;20520;-58
2023/12/18 04:22:49;;;;;;;11.23;8.13;;;6.00;99.20;;;;;;5005186;28;20035;-58
2023/12/18 04:25:15;;;;;;;10.98;7.97;;;6.00;99.20;;;;;;5005329;28;20472;-58
2023/12/18 04:27:41;;;;;;;13.93;8.40;;;6.00;99.20;;;;;;5005681;28;20027;-58
2023/12/18 04:30:07;;;;;;;14.18;7.93;;;6.00;99.20;;;;;;5005666;28;20030;-58
2023/12/18 04:32:32;;;;;;;12.88;8.35;;;6.00;99.20;;;;;;5006595;28;20386;-58
2023/12/18 04:34:58;;;;;;;8.80;7.15;;;6.00;99.20;;;;;;5005059;28;20034;-57
2023/12/18 04:37:24;;;;;;;12.45;8.10;;;6.00;99.20;;;;;;5006129;28;20227;-57
2023/12/18 04:39:49;;;;;;;11.82;7.70;;;6.00;99.20;;;;;;5005344;28;20058;-58
2023/12/18 04:42:15;;;;;;;11.20;8.20;;;6.00;99.20;;;;;;5005169;28;20022;-58
2023/12/18 04:44:40;;;;;;;10.50;7.57;;;6.00;99.20;;;;;;5005050;28;20038;-58
2023/12/18 04:47:06;;;;;;;10.95;8.50;;;6.00;99.30;;;;;;5006301;28;20058;-58
2023/12/18 04:49:31;;;;;;;10.48;7.40;;;5.90;99.30;;;;;;5006394;28;20034;-58
2023/12/18 04:51:57;;;;;;;10.10;7.40;;;5.90;99.30;;;;;;5006235;28;20018;-59
2023/12/18 04:54:22;;;;;;;11.07;7.95;;;5.90;99.30;;;;;;5006254;28;20030;-58
2023/12/18 04:56:48;;;;;;;13.02;7.63;;;5.90;99.30;;;;;;5004780;28;20035;-58
2023/12/18 04:59:14;;;;;;;8.32;7.22;;;5.90;99.30;;;;;;4988474;28;20560;-58
2023/12/18 05:01:39;;;;;;;10.90;8.32;;;5.90;99.30;;;;;;5004854;28;20039;-58
2023/12/18 05:04:05;;;;;;;9.38;7.43;;;5.90;99.30;;;;;;5004672;28;20077;-58
2023/12/18 05:06:30;;;;;;;13.35;7.43;;;5.90;99.30;;;;;;5005904;28;20057;-58
2023/12/18 05:08:56;;;;;;;11.98;7.40;;;5.90;99.30;;;;;;5004716;28;20030;-58
2023/12/18 05:11:23;;;;;;;11.07;7.68;;;5.90;99.30;;;;;;5004537;28;20030;-58
2023/12/18 05:13:48;;;;;;;10.05;8.20;;;5.90;99.30;;;;;;5004878;28;20509;-59
2023/12/18 05:16:15;;;;;;;13.40;7.78;;;5.90;99.30;;;;;;5004552;28;20038;-59
2023/12/18 05:18:40;;;;;;;10.70;7.15;;;5.90;99.30;;;;;;5004485;28;20042;-58
2023/12/18 05:21:06;;;;;;;11.70;7.60;;;5.90;99.30;;;;;;5004481;28;20030;-58
2023/12/18 05:23:32;;;;;;;8.88;6.82;;;5.90;99.30;;;;;;5004528;28;20022;-58
2023/12/18 05:25:57;;;;;;;10.00;6.90;;;5.90;99.30;;;;;;5005909;28;20423;-58
2023/12/18 05:28:23;;;;;;;10.25;7.18;;;5.90;99.30;;;;;;5005521;28;20367;-58
2023/12/18 05:30:49;;;;;;;10.90;7.43;;;5.90;99.30;;;;;;5005416;28;20042;-58
2023/12/18 05:33:14;;;;;;;8.60;6.78;;;5.90;99.30;;;;;;5004253;28;20094;-58
2023/12/18 05:35:40;;;;;;;9.93;6.85;;;5.80;99.30;;;;;;5004334;28;20030;-58
2023/12/18 05:38:08;;;;;;;12.48;8.10;;;5.80;99.30;;;;;;4987949;28;20029;-58
2023/12/18 05:40:34;;;;;;;9.18;7.05;;;5.90;99.30;;;;;;5004372;28;20049;-58
2023/12/18 05:43:00;;;;;;;10.40;7.50;;;5.90;99.30;;;;;;5004046;28;20072;-58
2023/12/18 05:45:25;;;;;;;11.50;8.43;;;5.90;99.30;;;;;;5004273;28;20027;-58
2023/12/18 05:47:51;;;;;;;9.13;7.20;;;5.80;99.30;;;;;;5004082;28;20428;-58
2023/12/18 05:50:16;;;;;;;9.30;7.72;;;5.90;99.30;;;;;;5004215;28;20038;-57
2023/12/18 05:52:42;;;;;;;12.60;7.43;;;5.80;99.30;;;;;;5004032;28;20034;-58
2023/12/18 05:55:09;;;;;;;9.00;6.72;;;5.80;99.30;;;;;;5005257;28;20031;-58
2023/12/18 05:57:38;;;;;;;10.05;6.80;;;5.80;99.30;;;;;;5004987;28;20018;-58
2023/12/18 06:00:07;;;;;;;9.85;7.35;;;5.90;99.30;;;;;;5005084;28;20027;-58
2023/12/18 06:02:33;;;;;;;8.40;7.38;;;5.80;99.30;;;;;;5005181;28;20053;-58
2023/12/18 06:04:59;;;;;;;10.75;7.25;;;5.80;99.30;;;;;;5003897;28;20030;-58
2023/12/18 06:07:24;;;;;;;12.63;7.22;;;5.80;99.30;;;;;;4987400;28;20169;-58
2023/12/18 06:09:50;;;;;;;9.32;6.63;;;5.80;99.30;;;;;;5003768;28;20035;-58
2023/12/18 06:12:15;;;;;;;8.30;7.00;;;5.80;99.30;;;;;;5004944;28;20054;-58
2023/12/18 06:14:41;;;;;;;9.65;7.70;;;5.80;99.30;;;;;;5005852;28;20036;-58
2023/12/18 06:17:06;;;;;;;8.82;6.90;;;5.80;99.30;;;;;;4989205;28;20034;-57
2023/12/18 06:19:34;;;;;;;8.40;7.07;;;5.80;99.30;;;;;;5004761;28;20049;-58
2023/12/18 06:22:00;;;;;;;10.32;7.28;;;5.80;99.30;;;;;;5003516;28;20030;-58
2023/12/18 06:24:26;;;;;;;9.10;7.30;;;5.80;99.30;;;;;;5004973;28;20026;-58
2023/12/18 06:26:53;;;;;;;9.70;6.82;;;5.80;99.30;;;;;;5003494;28;20038;-58
2023/12/18 06:29:19;;;;;;;9.52;6.85;;;5.80;99.30;;;;;;5003549;28;20034;-58
2023/12/18 06:31:44;;;;;;;10.23;7.43;;;5.80;99.30;;;;;;5005046;28;20038;-58
2023/12/18 06:34:11;;;;;;;10.05;7.50;;;5.80;99.30;;;;;;5004612;28;20064;-58
2023/12/18 06:36:37;;;;;;;9.93;7.22;;;5.80;99.30;;;;;;5004410;28;20046;-58
2023/12/18 06:39:03;;;;;;;9.93;6.75;;;5.80;99.30;;;;;;5002565;28;20033;-59
2023/12/18 06:41:28;;;;;;;9.95;7.07;;;5.80;99.30;;;;;;5003551;28;20031;-58
2023/12/18 06:43:54;;;;;;;8.90;7.07;;;5.80;99.30;;;;;;4987154;28;20037;-58
2023/12/18 06:46:20;;;;;;;8.35;6.65;;;5.80;99.40;;;;;;5003090;28;20034;-58
2023/12/18 06:48:46;;;;;;;11.20;7.95;;;5.80;99.30;;;;;;5003086;28;20060;-58
2023/12/18 06:51:11;;;;;;;8.32;6.35;;;5.80;99.30;;;;;;5004457;28;20031;-58
2023/12/18 06:53:37;;;;;;;9.73;7.25;;;5.80;99.30;;;;;;5004152;28;20117;-58
2023/12/18 06:56:03;;;;;;;9.82;7.47;;;5.80;99.30;;;;;;5003104;28;20060;-58
2023/12/18 06:58:29;;;;;;;8.25;6.78;;;5.70;99.30;;;;;;5002777;28;20068;-58
2023/12/18 07:00:54;;;;;;;9.68;7.88;;;5.70;99.40;;;;;;4986772;28;20432;-58
2023/12/18 07:03:20;;;;;;;8.43;7.38;;;5.70;99.40;;;;;;5002809;28;20042;-59
2023/12/18 07:05:46;;;;;;;9.15;7.45;;;5.70;99.40;;;;;;5002904;28;20027;-58
2023/12/18 07:08:11;;;;;;;10.63;7.47;;;5.70;99.40;;;;;;5002791;28;20041;-58
2023/12/18 07:10:38;;;;;;;9.45;7.57;;;5.60;99.40;;;;;;5003012;28;20042;-58
2023/12/18 07:13:03;;;;;;;9.32;6.80;;;5.70;99.50;;;;;;4986522;28;20056;-58
2023/12/18 07:15:29;;;;;;;11.77;7.45;;;5.60;99.50;;;;;;5002167;28;20034;-58
2023/12/18 07:17:58;;;;;;;11.85;7.25;;;5.60;99.50;;;;;;5002476;28;20037;-58
2023/12/18 07:20:23;;;;;;;14.23;7.65;;;5.60;99.50;;;;;;5002641;28;20023;-58
2023/12/18 07:22:49;;;;;;;9.85;7.18;;;5.70;99.50;;;;;;5002677;28;20041;-58
2023/12/18 07:25:15;;;;;;;17.35;7.75;;;5.70;99.60;;;;;;5003910;28;20061;-58
2023/12/18 07:27:40;;;;;;;17.55;7.55;;;5.60;99.50;;;;;;4986259;28;20117;-58
2023/12/18 07:30:06;;;;;;;16.55;7.68;;;5.70;99.60;;;;;;5003620;28;20031;-58
2023/12/18 07:32:32;;;;;;;16.55;8.20;;;5.70;99.60;;;;;;5002295;28;20026;-58
2023/12/18 07:35:01;;;;;;;15.00;7.95;;;5.70;99.50;;;;;;5002439;28;20035;-58
2023/12/18 07:37:29;;;;;;;12.40;7.55;;;5.70;99.50;;;;;;5003709;28;20069;-58
2023/12/18 07:39:55;;;;;;;22.55;8.10;;;5.70;99.50;;;;;;5003766;28;20068;-58
2023/12/18 07:42:21;;;;;;;11.88;7.40;;;5.70;99.50;;;;;;5002566;28;20022;-58
2023/12/18 07:44:46;;;;;;;13.45;7.30;;;5.70;99.50;;;;;;5002522;28;20030;-58
2023/12/18 07:47:12;;;;;;;28.58;9.40;;;5.70;99.50;;;;;;5002158;28;20527;-58
2023/12/18 07:49:38;;;;;;;42.35;9.63;;;5.70;99.50;;;;;;5003544;28;20049;-58
2023/12/18 07:52:03;;;;;;;27.13;9.25;;;5.60;99.50;;;;;;5004877;28;20086;-58
2023/12/18 07:54:29;;;;;;;67.47;13.13;;;5.70;99.50;;;;;;4995116;28;20038;-58
2023/12/18 07:56:55;;;;;;;35.13;9.55;;;5.70;99.50;;;;;;4987176;28;20463;-58
2023/12/18 07:59:20;;;;;;;38.95;9.07;;;5.70;99.50;;;;;;4971153;28;20102;-58
2023/12/18 08:01:46;;;;;;;26.55;9.32;;;5.70;99.50;;;;;;4988619;28;20031;-58
2023/12/18 08:04:12;;;;;;;25.35;9.00;;;5.70;99.50;;;;;;4987503;28;20065;-58
2023/12/18 08:06:38;;;;;;;23.92;8.70;;;5.70;99.40;;;;;;4996106;28;20050;-58
2023/12/18 08:09:03;;;;;;;28.33;8.55;;;5.70;99.40;;;;;;5004616;28;20030;-58
2023/12/18 08:11:29;;;;;;;18.65;8.15;;;5.70;99.40;;;;;;5005658;28;20101;-58
2023/12/18 08:13:55;;;;;;;35.03;8.77;;;5.70;99.40;;;;;;5005178;28;20060;-58
2023/12/18 08:16:20;;;;;;;33.95;8.43;;;5.70;99.40;;;;;;5005114;28;20034;-59
2023/12/18 08:18:47;;;;;;;30.38;8.52;;;5.70;99.40;;;;;;4993250;28;20045;-58
2023/12/18 08:21:13;;;;;;;20.48;7.95;;;5.70;99.50;;;;;;4983991;28;20031;-58
2023/12/18 08:23:42;;;;;;;21.08;8.20;;;5.70;99.50;;;;;;4993327;28;20037;-58
2023/12/18 08:26:11;;;;;;;17.83;7.75;;;5.70;99.40;;;;;;5004693;28;20030;-58
2023/12/18 08:28:43;;;;;;;32.25;7.70;;;5.70;99.40;;;;;;4984924;28;20088;-58
2023/12/18 08:31:09;;;;;;;23.25;7.82;;;5.70;99.40;;;;;;5006645;28;20038;-58
2023/12/18 08:33:34;;;;;;;18.83;8.02;;;5.70;99.40;;;;;;4992252;28;20122;-58
2023/12/18 08:36:00;;;;;;;20.27;7.63;;;5.70;99.30;;;;;;5004497;28;20027;-58
2023/12/18 08:38:27;;;;;;;22.92;8.20;;;5.70;99.30;;;;;;5004577;28;20026;-58
2023/12/18 08:40:53;;;;;;;12.88;7.30;;;5.70;99.30;;;;;;5005895;28;20050;-58
2023/12/18 08:43:19;;;;;;;26.30;8.82;;;5.80;99.30;;;;;;5005719;28;20524;-58
2023/12/18 08:45:44;;;;;;;29.15;7.72;;;5.80;99.30;;;;;;5008730;28;20058;-58
2023/12/18 08:48:10;;;;;;;19.15;7.78;;;5.80;99.30;;;;;;5028735;28;20471;-58
2023/12/18 08:50:35;;;;;;;25.95;8.27;;;5.80;99.20;;;;;;5011198;28;20027;-58
2023/12/18 08:53:01;;;;;;;47.83;9.35;;;5.80;99.20;;;;;;5004294;28;20042;-58
2023/12/18 08:55:27;;;;;;;88.80;13.50;;;5.80;99.20;;;;;;5005126;28;20091;-58
2023/12/18 08:57:52;;;;;;;63.20;10.20;;;5.80;99.30;;;;;;5004438;28;20032;-58
2023/12/18 09:00:18;;;;;;;29.25;9.63;;;5.80;99.30;;;;;;5005805;28;20104;-58
2023/12/18 09:02:44;;;;;;;39.15;10.00;;;5.80;99.40;;;;;;5004571;28;20031;-58
2023/12/18 09:05:09;;;;;;;26.27;9.10;;;5.80;99.40;;;;;;5004114;28;20038;-58
2023/12/18 09:07:35;;;;;;;49.45;10.75;;;5.80;99.40;;;;;;5003614;28;20069;-58
2023/12/18 09:10:00;;;;;;;40.15;10.15;;;5.80;99.40;;;;;;4996930;28;20038;-58
2023/12/18 09:12:26;;;;;;;26.00;9.18;;;5.80;99.40;;;;;;5003216;28;20053;-58
2023/12/18 09:14:51;;;;;;;69.85;11.70;;;5.80;99.40;;;;;;5012769;28;20088;-58
2023/12/18 09:17:17;;;;;;;42.53;10.55;;;5.80;99.40;;;;;;5002255;28;20410;-56
2023/12/18 09:19:43;;;;;;;61.95;12.10;;;5.80;99.50;;;;;;5001824;28;20027;-58
2023/12/18 09:22:08;;;;;;;41.53;10.52;;;5.80;99.50;;;;;;5007468;28;20067;-58
2023/12/18 09:24:34;;;;;;;74.45;11.80;;;5.80;99.50;;;;;;5010665;28;20027;-59
2023/12/18 09:27:00;;;;;;;60.03;10.93;;;5.80;99.50;;;;;;5001546;28;20099;-58
2023/12/18 09:29:25;;;;;;;35.50;9.27;;;5.80;99.50;;;;;;5002749;28;20450;-58
2023/12/18 09:31:51;;;;;;;51.40;9.85;;;5.90;99.50;;;;;;5003945;28;20034;-58
2023/12/18 09:34:17;;;;;;;50.17;9.95;;;5.90;99.50;;;;;;5004002;28;20109;-58
2023/12/18 09:36:42;;;;;;;33.13;9.48;;;5.90;99.50;;;;;;5003580;28;20038;-58
2023/12/18 09:39:09;;;;;;;61.55;11.35;;;5.90;99.40;;;;;;5003596;28;20058;-58
2023/12/18 09:41:34;;;;;;;55.13;10.43;;;5.90;99.40;;;;;;5003393;28;20027;-58
2023/12/18 09:44:00;;;;;;;61.22;10.30;;;5.90;99.40;;;;;;5003366;28;20079;-58
2023/12/18 09:46:26;;;;;;;47.72;10.25;;;5.90;99.40;;;;;;5003368;28;20482;-58
2023/12/18 09:48:52;;;;;;;38.78;9.80;;;5.90;99.40;;;;;;5002885;28;20027;-58
2023/12/18 09:51:20;;;;;;;33.65;8.80;;;5.90;99.30;;;;;;5004441;28;20079;-58
2023/12/18 09:53:46;;;;;;;25.92;9.38;;;5.90;99.30;;;;;;4983388;28;20034;-57
2023/12/18 09:56:12;;;;;;;32.08;10.02;;;5.90;99.30;;;;;;4962254;28;20027;-58
2023/12/18 09:58:38;;;;;;;33.47;9.65;;;6.00;99.30;;;;;;5004498;28;20033;-58
2023/12/18 10:01:04;;;;;;;33.83;8.45;;;6.00;99.30;;;;;;5003737;28;20033;-58
2023/12/18 10:03:30;;;;;;;35.92;9.43;;;6.00;99.30;;;;;;5002564;28;20151;-58
2023/12/18 10:05:55;;;;;;;33.28;8.10;;;6.00;99.30;;;;;;5004564;28;20038;-58
2023/12/18 10:08:21;;;;;;;25.73;8.50;;;6.00;99.40;;;;;;5004206;28;20033;-58
2023/12/18 10:10:47;;;;;;;28.92;8.60;;;6.00;99.30;;;;;;5020702;28;20034;-58
2023/12/18 10:13:15;;;;;;;29.38;8.32;;;6.00;99.30;;;;;;5007094;28;20026;-58
2023/12/18 10:15:42;;;;;;;36.17;9.20;;;6.10;99.40;;;;;;5016910;28;20055;-58
2023/12/18 10:18:09;;;;;;;31.25;8.73;;;6.10;99.40;;;;;;5017849;28;20057;-58
2023/12/18 10:20:35;;;;;;;33.78;8.80;;;6.10;99.30;;;;;;5016032;28;20160;-58
2023/12/18 10:23:01;;;;;;;33.55;8.40;;;6.10;99.30;;;;;;5015169;28;20454;-58
2023/12/18 10:25:26;;;;;;;34.50;9.13;;;6.10;99.30;;;;;;5004525;28;20033;-58
2023/12/18 10:27:55;;;;;;;29.17;8.63;;;6.10;99.20;;;;;;4982069;28;20039;-58
2023/12/18 10:30:25;;;;;;;22.45;7.43;;;6.10;99.30;;;;;;5003002;28;20039;-58
2023/12/18 10:32:51;;;;;;;25.77;7.93;;;6.20;99.30;;;;;;5002385;28;20031;-58
2023/12/18 10:35:17;;;;;;;24.73;8.50;;;6.20;99.20;;;;;;5002471;28;20058;-57
2023/12/18 10:37:48;;;;;;;34.60;8.27;;;6.20;99.10;;;;;;5002610;28;20026;-58
2023/12/18 10:40:13;;;;;;;37.38;7.82;;;6.20;99.10;;;;;;5002587;28;20096;-57
2023/12/18 10:42:39;;;;;;;26.65;7.55;;;6.20;99.10;;;;;;5002288;28;20026;-57
2023/12/18 10:45:06;;;;;;;20.45;7.45;;;6.20;99.00;;;;;;5002751;28;20050;-57
2023/12/18 10:47:31;;;;;;;29.58;7.85;;;6.20;99.00;;;;;;5003943;28;20019;-57
2023/12/18 10:50:01;;;;;;;24.67;7.82;;;6.20;99.00;;;;;;4986120;28;20057;-58
2023/12/18 10:52:31;;;;;;;22.05;8.43;;;6.30;99.00;;;;;;5000989;28;20027;-57
2023/12/18 10:55:00;;;;;;;23.00;8.05;;;6.20;98.90;;;;;;4986103;28;20042;-57
2023/12/18 10:57:26;;;;;;;18.27;8.00;;;6.30;98.90;;;;;;5002642;28;20042;-57
2023/12/18 10:59:52;;;;;;;18.98;6.75;;;6.30;99.20;;;;;;5002204;28;20375;-58
2023/12/18 11:02:18;;;;;;;15.68;6.68;;;6.30;98.90;;;;;;4985666;28;20022;-60
2023/12/18 11:04:46;;;;;;;24.70;7.30;;;6.30;98.90;;;;;;5002506;28;20086;-60
2023/12/18 11:07:16;;;;;;;16.05;8.93;;;6.30;98.90;;;;;;5012201;28;20030;-58
2023/12/18 11:09:45;;;;;;;19.42;7.78;;;6.30;98.90;;;;;;5002138;28;20382;-57
2023/12/18 11:12:11;;;;;;;31.27;8.32;;;6.30;98.90;;;;;;4983252;28;20474;-57
2023/12/18 11:14:46;;;;;;;24.15;7.75;;;6.40;98.90;;;;;;4984358;28;20042;-59
2023/12/18 11:17:36;;;;;;;33.70;8.33;;;6.40;98.90;;;;;;4993465;28;20030;-59
2023/12/18 11:20:25;;;;;;;42.25;8.40;;;6.40;99.00;;;;;;5002226;28;20262;-58
2023/12/18 11:22:52;;;;;;;47.10;8.52;;;6.40;99.10;;;;;;5002024;28;20022;-59
2023/12/18 11:25:18;;;;;;;22.58;8.02;;;6.50;99.10;;;;;;5002218;28;20125;-58
2023/12/18 11:27:44;;;;;;;27.67;7.60;;;6.40;99.00;;;;;;5003162;28;20031;-58
2023/12/18 11:30:29;;;;;;;84.10;11.25;;;6.40;99.00;;;;;;4985674;28;20070;-58
2023/12/18 11:32:56;;;;;;;41.15;9.65;;;6.40;99.00;;;;;;5002624;28;20059;-58
2023/12/18 11:35:30;;;;;;;46.05;9.23;;;6.50;99.10;;;;;;5002858;28;20109;-58
2023/12/18 11:38:14;;;;;;;31.30;8.43;;;6.50;99.10;;;;;;5002900;28;20023;-58
2023/12/18 11:40:41;;;;;;;36.05;8.50;;;6.50;99.10;;;;;;4985600;28;20437;-58
2023/12/18 11:43:36;;;;;;;29.83;8.35;;;6.50;99.00;;;;;;5013164;28;20033;-58
2023/12/18 11:46:02;;;;;;;83.13;14.75;;;6.50;99.00;;;;;;5023608;28;20037;-58
2023/12/18 11:48:28;;;;;;;93.13;14.10;;;6.60;99.20;;;;;;4993443;28;20030;-58
2023/12/18 11:50:53;;;;;;;96.00;11.38;;;6.60;99.30;;;;;;5001499;28;20375;-58
2023/12/18 11:53:22;;;;;;;77.47;12.15;;;6.60;99.30;;;;;;4986525;28;20042;-58
2023/12/18 11:55:51;;;;;;;70.30;13.57;;;6.60;99.20;;;;;;4999527;28;20026;-58
2023/12/18 11:58:21;;;;;;;44.80;8.52;;;6.70;99.20;;;;;;5001837;28;20026;-59
2023/12/18 12:00:47;;;;;;;56.95;11.00;;;6.70;99.20;;;;;;5001807;28;20050;-58
2023/12/18 12:03:15;;;;;;;51.75;10.50;;;6.70;99.20;;;;;;5002975;28;20031;-57
2023/12/18 12:05:41;;;;;;;91.93;12.10;;;6.70;99.20;;;;;;5001573;28;20037;-57
2023/12/18 12:08:07;;;;;;;128.98;16.83;;;6.70;99.20;;;;;;5002902;28;20026;-57
2023/12/18 12:10:40;;;;;;;86.53;13.02;;;6.70;99.30;;;;;;5003101;28;20041;-58
2023/12/18 12:13:06;;;;;;;133.95;18.65;;;6.70;99.20;;;;;;4985262;28;20032;-58
2023/12/18 12:15:32;;;;;;;342.25;38.15;;;6.80;99.20;;;;;;4985124;28;20035;-58
2023/12/18 12:18:01;;;;;;;362.40;38.05;;;6.70;99.30;;;;;;5001673;28;20034;-58
2023/12/18 12:20:27;;;;;;;113.57;15.75;;;6.80;99.20;;;;;;5002586;28;20173;-58
2023/12/18 12:22:53;;;;;;;58.88;10.90;;;6.80;99.20;;;;;;5001580;28;20027;-58
2023/12/18 12:25:18;;;;;;;55.38;9.98;;;6.80;99.10;;;;;;5017913;28;20055;-58
2023/12/18 12:27:44;;;;;;;39.92;8.77;;;6.90;99.00;;;;;;5021323;28;20060;-58
2023/12/18 12:30:11;;;;;;;45.25;9.55;;;6.90;99.10;;;;;;4994996;28;20122;-58
2023/12/18 12:32:36;;;;;;;216.10;22.73;;;6.90;99.00;;;;;;4985144;28;20039;-57
2023/12/18 12:35:02;;;;;;;114.57;16.00;;;6.90;99.00;;;;;;5001175;28;20030;-58
2023/12/18 12:37:29;;;;;;;84.78;11.65;;;6.90;99.00;;;;;;5004355;28;20030;-58
2023/12/18 12:40:05;;;;;;;62.20;11.57;;;6.90;99.00;;;;;;5004593;28;20478;-57